createdAt,value
2023-04-19T00:01:10.637Z,9.97
2023-04-19T00:03:38.812Z,10.93
2023-04-19T00:06:09.576Z,10.30
2023-04-19T00:08:36.852Z,10.70
2023-04-19T00:11:04.233Z,10.73
2023-04-19T00:13:31.525Z,8.70
2023-04-19T00:15:59.449Z,11.50
2023-04-19T00:18:26.723Z,10.20
2023-04-19T00:20:53.964Z,10.17
2023-04-19T00:23:21.238Z,8.80
2023-04-19T00:25:49.566Z,10.53
2023-04-19T00:28:16.847Z,10.57
2023-04-19T00:30:44.270Z,12.40
2023-04-19T00:33:12.368Z,11.73
2023-04-19T00:35:41.428Z,14.17
2023-04-19T00:38:08.811Z,15.13
2023-04-19T00:40:37.114Z,19.97
2023-04-19T00:43:04.415Z,11.67
2023-04-19T00:45:34.549Z,17.30
2023-04-19T00:48:02.077Z,15.53
2023-04-19T00:50:30.205Z,16.23
2023-04-19T00:52:58.048Z,12.37
2023-04-19T00:55:25.431Z,18.60
2023-04-19T00:57:53.670Z,14.40
2023-04-19T01:00:21.064Z,14.90
2023-04-19T01:02:48.438Z,12.77
2023-04-19T01:05:16.179Z,15.23
2023-04-19T01:07:44.176Z,17.50
2023-04-19T01:10:11.611Z,15.90
2023-04-19T01:12:38.919Z,11.00
2023-04-19T01:15:07.454Z,8.63
2023-04-19T01:17:36.344Z,5.60
2023-04-19T01:20:07.335Z,14.47
2023-04-19T01:22:36.948Z,10.53
2023-04-19T01:25:04.863Z,11.23
2023-04-19T01:27:32.344Z,9.27
2023-04-19T01:29:59.619Z,11.00
2023-04-19T01:32:26.880Z,16.17
2023-04-19T01:34:54.188Z,14.90
2023-04-19T01:37:21.438Z,11.53
2023-04-19T01:39:49.365Z,10.67
2023-04-19T01:42:16.674Z,13.80
2023-04-19T01:44:43.954Z,14.60
2023-04-19T01:47:11.338Z,8.43
2023-04-19T01:49:38.721Z,13.30
2023-04-19T01:52:06.102Z,16.50
2023-04-19T01:54:33.418Z,15.53
2023-04-19T01:57:01.851Z,13.10
2023-04-19T01:59:29.147Z,13.70
2023-04-19T02:01:56.422Z,12.00
2023-04-19T02:04:23.809Z,14.80
2023-04-19T02:06:51.135Z,13.30
2023-04-19T02:09:18.436Z,16.30
2023-04-19T02:11:45.654Z,16.80
2023-04-19T02:14:13.833Z,15.00
2023-04-19T02:16:41.312Z,20.90
2023-04-19T02:19:08.658Z,28.10
2023-04-19T02:21:35.880Z,20.03
2023-04-19T02:24:03.309Z,13.33
2023-04-19T02:26:30.605Z,14.23
2023-04-19T02:28:57.929Z,14.17
2023-04-19T02:31:25.976Z,20.63
2023-04-19T02:33:53.295Z,17.00
2023-04-19T02:36:20.613Z,15.93
2023-04-19T02:38:47.888Z,9.73
2023-04-19T02:41:15.645Z,13.37
2023-04-19T02:43:42.934Z,17.47
2023-04-19T02:46:10.827Z,12.93
2023-04-19T02:48:38.820Z,15.73
2023-04-19T02:51:06.195Z,10.37
2023-04-19T02:53:33.662Z,18.20
2023-04-19T02:56:01.141Z,15.90
2023-04-19T02:58:28.373Z,15.10
2023-04-19T03:00:55.611Z,26.07
2023-04-19T03:03:23.038Z,15.17
2023-04-19T03:05:51.344Z,17.00
2023-04-19T03:08:18.623Z,20.20
2023-04-19T03:10:45.986Z,17.90
2023-04-19T03:13:13.306Z,17.30
2023-04-19T03:15:40.593Z,20.13
2023-04-19T03:18:07.872Z,21.40
2023-04-19T03:20:35.183Z,11.40
2023-04-19T03:23:03.154Z,22.77
2023-04-19T03:25:31.392Z,25.73
2023-04-19T03:27:58.840Z,23.90
2023-04-19T03:30:26.096Z,23.60
2023-04-19T03:32:53.370Z,21.30
2023-04-19T03:35:21.706Z,18.10
2023-04-19T03:37:48.922Z,32.20
2023-04-19T03:40:17.056Z,21.40
2023-04-19T03:42:44.337Z,24.10
2023-04-19T03:45:12.115Z,15.90
2023-04-19T03:47:39.526Z,23.47
2023-04-19T03:50:08.015Z,28.90
2023-04-19T03:52:35.343Z,27.60
2023-04-19T03:55:02.698Z,27.67
2023-04-19T03:57:30.912Z,36.17
2023-04-19T03:59:58.386Z,26.87
2023-04-19T04:02:26.050Z,24.27
2023-04-19T04:04:56.845Z,24.97
2023-04-19T04:07:25.182Z,14.10
2023-04-19T04:09:52.432Z,33.60
2023-04-19T04:12:19.695Z,12.27
2023-04-19T04:14:47.658Z,9.30
2023-04-19T04:17:14.970Z,10.60
2023-04-19T04:19:42.287Z,12.53
2023-04-19T04:22:09.589Z,13.07
2023-04-19T04:24:40.645Z,23.10
2023-04-19T04:27:09.456Z,16.07
2023-04-19T04:29:36.750Z,16.83
2023-04-19T04:32:07.581Z,15.87
2023-04-19T04:34:35.136Z,15.80
2023-04-19T04:37:02.969Z,11.40
2023-04-19T04:39:30.267Z,16.10
2023-04-19T04:41:58.001Z,31.53
2023-04-19T04:44:25.425Z,9.80
2023-04-19T04:46:52.890Z,10.03
2023-04-19T04:49:20.955Z,14.93
2023-04-19T04:51:48.295Z,15.13
2023-04-19T04:54:15.789Z,8.70
2023-04-19T04:56:43.312Z,8.57
2023-04-19T04:59:11.006Z,6.63
2023-04-19T05:01:38.332Z,11.70
2023-04-19T05:04:05.888Z,8.13
2023-04-19T05:06:33.904Z,8.93
2023-04-19T05:09:01.246Z,9.13
2023-04-19T05:11:28.546Z,10.40
2023-04-19T05:13:55.834Z,14.27
2023-04-19T05:16:23.174Z,11.80
2023-04-19T05:18:50.484Z,10.90
2023-04-19T05:21:17.810Z,5.97
2023-04-19T05:23:45.858Z,3.97
2023-04-19T05:26:14.700Z,4.43
2023-04-19T05:28:43.228Z,4.40
2023-04-19T05:31:11.112Z,1.27
2023-04-19T05:33:38.756Z,3.30
2023-04-19T05:36:06.587Z,3.97
2023-04-19T05:38:33.875Z,8.10
2023-04-19T05:41:02.261Z,2.93
2023-04-19T05:43:29.571Z,2.37
2023-04-19T05:45:56.902Z,5.73
2023-04-19T05:48:25.125Z,3.47
2023-04-19T05:50:54.301Z,5.80
2023-04-19T05:53:21.646Z,5.40
2023-04-19T05:55:50.701Z,11.63
2023-04-19T05:58:18.654Z,3.47
2023-04-19T06:00:46.022Z,8.43
2023-04-19T06:03:13.487Z,7.33
2023-04-19T06:05:41.039Z,4.90
2023-04-19T06:08:08.839Z,9.13
2023-04-19T06:10:53.325Z,4.10
2023-04-19T06:13:33.295Z,8.33
2023-04-19T06:16:00.605Z,8.10
2023-04-19T06:18:27.924Z,20.37
2023-04-19T06:20:55.363Z,5.50
2023-04-19T06:23:22.822Z,2.83
2023-04-19T06:25:50.161Z,4.37
2023-04-19T06:28:17.455Z,4.53
2023-04-19T06:30:45.450Z,5.27
2023-04-19T06:33:12.837Z,4.40
2023-04-19T06:35:40.166Z,3.13
2023-04-19T06:38:07.513Z,3.90
2023-04-19T06:40:34.745Z,4.80
2023-04-19T06:43:02.056Z,20.63
2023-04-19T06:45:33.054Z,1.70
2023-04-19T06:48:01.227Z,3.37
2023-04-19T06:50:29.270Z,4.00
2023-04-19T06:52:56.774Z,11.60
2023-04-19T06:55:24.401Z,6.07
2023-04-19T06:57:51.668Z,4.10
2023-04-19T07:00:19.409Z,4.03
2023-04-19T07:02:46.797Z,1.60
2023-04-19T07:05:15.098Z,2.40
2023-04-19T07:07:42.349Z,6.73
2023-04-19T07:10:10.102Z,8.40
2023-04-19T07:12:37.425Z,4.43
2023-04-19T07:15:05.536Z,6.53
2023-04-19T07:17:35.945Z,3.47
2023-04-19T07:20:05.041Z,7.50
2023-04-19T07:22:33.127Z,6.90
2023-04-19T07:25:00.380Z,5.77
2023-04-19T07:27:27.769Z,3.27
2023-04-19T07:29:55.005Z,14.37
2023-04-19T07:32:22.329Z,4.53
2023-04-19T07:34:51.472Z,1.57
2023-04-19T07:37:19.102Z,3.80
2023-04-19T07:39:47.088Z,4.73
2023-04-19T07:42:14.364Z,6.03
2023-04-19T07:44:41.656Z,3.47
2023-04-19T07:47:08.941Z,3.50
2023-04-19T07:49:36.973Z,3.50
2023-04-19T07:52:07.743Z,5.63
2023-04-19T07:54:35.218Z,2.93
2023-04-19T07:57:03.299Z,4.63
2023-04-19T07:59:32.679Z,3.07
2023-04-19T08:02:00.319Z,4.97
2023-04-19T08:04:28.055Z,5.03
2023-04-19T08:06:56.385Z,5.47
2023-04-19T08:09:23.648Z,4.40
2023-04-19T08:11:50.911Z,7.23
2023-04-19T08:14:32.313Z,3.67
2023-04-19T08:19:36.552Z,5.50
2023-04-19T08:22:04.166Z,3.43
2023-04-19T08:24:31.448Z,4.17
2023-04-19T08:27:00.166Z,3.73
2023-04-19T08:29:28.333Z,5.77
2023-04-19T08:31:55.696Z,6.50
2023-04-19T08:34:23.095Z,9.83
2023-04-19T08:37:00.142Z,4.00
2023-04-19T08:39:33.659Z,13.10
2023-04-19T08:42:09.236Z,7.43
2023-04-19T08:44:58.972Z,3.00
2023-04-19T08:47:34.035Z,1.97
2023-04-19T08:52:39.273Z,3.33
2023-04-19T08:55:12.461Z,4.37
2023-04-19T08:57:39.817Z,2.73
2023-04-19T09:00:10.695Z,10.00
2023-04-19T09:02:48.541Z,3.50
2023-04-19T09:05:18.122Z,2.30
2023-04-19T09:07:46.265Z,4.93
2023-04-19T09:10:15.449Z,5.20
2023-04-19T09:12:43.462Z,3.20
2023-04-19T09:15:11.712Z,6.30
2023-04-19T09:17:40.164Z,6.37
2023-04-19T09:20:07.998Z,3.87
2023-04-19T09:22:35.256Z,14.40
2023-04-19T09:25:37.330Z,8.50
2023-04-19T09:27:50.046Z,2.50
2023-04-19T09:30:32.486Z,3.37
2023-04-19T09:33:01.562Z,5.30
2023-04-19T09:35:40.963Z,3.40
2023-04-19T09:38:08.357Z,4.87
2023-04-19T09:40:36.230Z,4.80
2023-04-19T09:43:23.115Z,3.27
2023-04-19T09:45:51.882Z,4.13
2023-04-19T09:48:19.169Z,10.53
2023-04-19T09:50:59.606Z,10.47
2023-04-19T09:53:33.374Z,3.60
2023-04-19T09:56:02.669Z,2.20
2023-04-19T10:01:14.225Z,9.20
2023-04-19T10:03:45.452Z,2.90
2023-04-19T10:08:49.566Z,4.23
2023-04-19T10:11:17.399Z,6.90
2023-04-19T10:13:46.691Z,4.30
2023-04-19T10:16:20.123Z,5.60
2023-04-19T10:18:49.328Z,2.83
2023-04-19T10:21:16.587Z,3.20
2023-04-19T10:23:44.053Z,4.03
2023-04-19T10:26:11.371Z,7.00
2023-04-19T10:28:38.552Z,2.10
2023-04-19T10:31:06.163Z,2.90
2023-04-19T10:33:37.323Z,3.50
2023-04-19T10:36:08.755Z,4.53
2023-04-19T10:38:40.781Z,3.67
2023-04-19T10:41:12.253Z,7.60
2023-04-19T10:43:43.460Z,3.90
2023-04-19T10:46:15.471Z,7.30
2023-04-19T10:48:54.467Z,3.17
2023-04-19T10:51:23.817Z,3.60
2023-04-19T10:53:53.445Z,4.90
2023-04-19T10:56:42.980Z,18.63
2023-04-19T10:59:22.906Z,5.23
2023-04-19T11:01:55.862Z,3.97
2023-04-19T11:04:39.993Z,2.60
2023-04-19T11:07:07.702Z,3.13
2023-04-19T11:09:36.098Z,6.53
2023-04-19T11:12:11.885Z,3.33
2023-04-19T11:14:41.876Z,10.07
2023-04-19T11:17:16.099Z,7.03
2023-04-19T11:19:45.328Z,4.83
2023-04-19T11:22:12.675Z,5.90
2023-04-19T11:24:47.372Z,10.27
2023-04-19T11:27:15.166Z,3.57
2023-04-19T11:29:42.510Z,9.83
2023-04-19T11:32:09.868Z,4.93
2023-04-19T11:34:38.182Z,6.43
2023-04-19T11:37:06.536Z,4.17
2023-04-19T11:39:33.943Z,5.90
2023-04-19T11:42:01.557Z,6.80
2023-04-19T11:44:28.963Z,6.83
2023-04-19T11:47:00.564Z,3.70
2023-04-19T11:49:29.118Z,7.90
2023-04-19T11:52:00.854Z,3.20
2023-04-19T11:54:29.954Z,3.37
2023-04-19T11:57:04.650Z,3.80
2023-04-19T11:59:33.633Z,3.73
2023-04-19T12:02:08.363Z,4.60
2023-04-19T12:04:36.293Z,5.83
2023-04-19T12:07:06.076Z,4.37
2023-04-19T12:09:36.148Z,8.33
2023-04-19T12:12:03.916Z,4.17
2023-04-19T12:14:31.780Z,8.93
2023-04-19T12:17:10.301Z,10.63
2023-04-19T12:19:42.892Z,2.47
2023-04-19T12:22:11.613Z,3.23
2023-04-19T12:24:40.364Z,5.40
2023-04-19T12:27:08.296Z,10.07
2023-04-19T12:29:35.865Z,4.73
2023-04-19T12:32:03.870Z,8.10
2023-04-19T12:34:31.399Z,5.33
2023-04-19T12:36:58.666Z,9.63
2023-04-19T12:39:25.980Z,7.13
2023-04-19T12:41:54.031Z,4.27
2023-04-19T12:44:21.464Z,5.03
2023-04-19T12:46:48.844Z,7.63
2023-04-19T12:49:18.608Z,12.20
2023-04-19T12:51:46.874Z,7.17
2023-04-19T12:54:14.652Z,2.17
2023-04-19T12:56:43.786Z,9.50
2023-04-19T12:59:11.856Z,3.87
2023-04-19T13:01:39.643Z,4.60
2023-04-19T13:04:10.854Z,8.77
2023-04-19T13:06:39.591Z,5.83
2023-04-19T13:11:39.368Z,12.33
2023-04-19T13:14:06.819Z,7.50
2023-04-19T13:16:35.046Z,14.83
2023-04-19T13:19:02.409Z,10.00
2023-04-19T13:21:30.850Z,5.37
2023-04-19T13:23:59.179Z,5.50
2023-04-19T13:26:28.562Z,4.10
2023-04-19T13:28:56.158Z,8.43
2023-04-19T13:31:23.544Z,7.23
2023-04-19T13:33:52.066Z,5.53
2023-04-19T13:36:19.879Z,8.43
2023-04-19T13:38:50.481Z,8.80
2023-04-19T13:41:17.752Z,11.37
2023-04-19T13:43:45.125Z,8.63
2023-04-19T13:46:12.444Z,6.90
2023-04-19T13:48:39.925Z,6.87
2023-04-19T13:51:10.733Z,6.77
2023-04-19T13:53:39.237Z,4.90
2023-04-19T13:56:08.653Z,7.00
2023-04-19T13:58:37.552Z,5.93
2023-04-19T14:01:05.151Z,7.90
2023-04-19T14:03:33.096Z,3.03
2023-04-19T14:06:00.563Z,3.73
2023-04-19T14:08:28.563Z,7.80
2023-04-19T14:10:56.850Z,9.30
2023-04-19T14:13:24.208Z,4.60
2023-04-19T14:15:53.214Z,5.10
2023-04-19T14:18:20.609Z,4.50
2023-04-19T14:20:47.977Z,8.37
2023-04-19T14:23:15.324Z,5.50
2023-04-19T14:25:43.359Z,7.47
2023-04-19T14:28:13.178Z,4.20
2023-04-19T14:30:40.860Z,8.93
2023-04-19T14:33:08.342Z,3.80
2023-04-19T14:35:35.632Z,6.23
2023-04-19T14:38:03.006Z,7.70
2023-04-19T14:40:41.837Z,9.90
2023-04-19T14:43:15.887Z,6.70
2023-04-19T14:45:43.277Z,9.27
2023-04-19T14:48:10.777Z,8.17
2023-04-19T14:50:38.220Z,9.50
2023-04-19T14:53:05.753Z,7.93
2023-04-19T14:55:33.021Z,2.70
2023-04-19T14:58:00.247Z,6.57
2023-04-19T15:00:28.964Z,9.43
2023-04-19T15:02:56.814Z,6.73
2023-04-19T15:05:26.817Z,7.50
2023-04-19T15:07:54.196Z,9.13
2023-04-19T15:10:21.541Z,6.10
2023-04-19T15:12:48.817Z,6.23
2023-04-19T15:15:16.136Z,4.90
2023-04-19T15:17:44.207Z,3.23
2023-04-19T15:20:12.025Z,10.30
2023-04-19T15:22:39.414Z,5.60
2023-04-19T15:25:07.315Z,4.43
2023-04-19T15:27:34.708Z,10.73
2023-04-19T15:30:02.648Z,9.83
2023-04-19T15:32:33.464Z,11.30
2023-04-19T15:35:01.532Z,7.77
2023-04-19T15:37:28.977Z,6.80
2023-04-19T15:39:56.266Z,9.83
2023-04-19T15:42:23.574Z,5.73
2023-04-19T15:44:50.912Z,8.67
2023-04-19T15:47:18.141Z,4.53
2023-04-19T15:49:46.627Z,4.97
2023-04-19T15:52:14.697Z,5.63
2023-04-19T15:54:41.959Z,7.53
2023-04-19T15:57:09.263Z,5.57
2023-04-19T15:59:36.887Z,7.70
2023-04-19T16:02:04.351Z,7.40
2023-04-19T16:04:31.718Z,4.67
2023-04-19T16:06:59.040Z,7.23
2023-04-19T16:09:26.938Z,11.13
2023-04-19T16:11:54.236Z,7.27
2023-04-19T16:14:21.469Z,9.90
2023-04-19T16:16:49.036Z,8.30
2023-04-19T16:19:16.702Z,8.73
2023-04-19T16:21:44.314Z,5.90
2023-04-19T16:24:11.561Z,11.20
2023-04-19T16:26:39.533Z,8.90
2023-04-19T16:29:06.867Z,5.93
2023-04-19T16:31:35.179Z,4.90
2023-04-19T16:34:02.595Z,6.73
2023-04-19T16:36:30.878Z,6.93
2023-04-19T16:38:58.148Z,7.37
2023-04-19T16:41:25.566Z,5.57
2023-04-19T16:43:55.981Z,9.10
2023-04-19T16:46:25.802Z,12.73
2023-04-19T16:48:53.163Z,8.50
2023-04-19T16:51:20.717Z,8.73
2023-04-19T16:53:48.510Z,31.40
2023-04-19T16:56:18.654Z,20.33
2023-04-19T16:58:46.407Z,34.07
2023-04-19T17:01:14.575Z,44.00
2023-04-19T17:03:42.111Z,27.53
2023-04-19T17:06:09.657Z,40.50
2023-04-19T17:08:37.727Z,34.93
2023-04-19T17:11:05.225Z,10.73
2023-04-19T17:13:32.567Z,23.43
2023-04-19T17:16:00.009Z,8.97
2023-04-19T17:18:28.055Z,10.00
2023-04-19T17:20:55.388Z,13.80
2023-04-19T17:23:24.703Z,6.80
2023-04-19T17:25:52.073Z,9.30
2023-04-19T17:28:19.317Z,8.50
2023-04-19T17:30:46.638Z,9.63
2023-04-19T17:33:14.041Z,8.10
2023-04-19T17:35:42.014Z,9.60
2023-04-19T17:38:10.738Z,9.87
2023-04-19T17:40:37.942Z,10.30
2023-04-19T17:43:05.427Z,7.20
2023-04-19T17:45:33.913Z,8.90
2023-04-19T17:48:01.638Z,8.83
2023-04-19T17:50:29.438Z,9.10
2023-04-19T17:52:57.498Z,6.53
2023-04-19T17:55:25.183Z,7.77
2023-04-19T17:57:53.026Z,13.70
2023-04-19T18:00:20.856Z,8.47
2023-04-19T18:02:48.335Z,7.80
2023-04-19T18:05:15.774Z,11.17
2023-04-19T18:07:43.059Z,10.23
2023-04-19T18:10:12.075Z,13.53
2023-04-19T18:12:39.415Z,11.20
2023-04-19T18:15:07.858Z,7.63
2023-04-19T18:17:36.000Z,8.50
2023-04-19T18:20:05.340Z,9.77
2023-04-19T18:22:33.060Z,9.00
2023-04-19T18:25:00.369Z,7.97
2023-04-19T18:27:29.703Z,16.87
2023-04-19T18:29:59.151Z,7.40
2023-04-19T18:32:28.006Z,11.40
2023-04-19T18:34:55.404Z,9.23
2023-04-19T18:37:22.680Z,8.37
2023-04-19T18:39:50.772Z,7.87
2023-04-19T18:42:18.339Z,12.13
2023-04-19T18:44:53.617Z,10.80
2023-04-19T18:47:21.728Z,10.47
2023-04-19T18:49:59.731Z,16.30
2023-04-19T18:52:31.441Z,18.27
2023-04-19T18:54:58.721Z,33.70
2023-04-19T18:57:27.406Z,46.37
2023-04-19T18:59:57.061Z,16.63
2023-04-19T19:02:24.580Z,21.17
2023-04-19T19:04:57.761Z,19.97
2023-04-19T19:10:01.609Z,20.70
2023-04-19T19:12:29.989Z,19.57
2023-04-19T19:14:58.289Z,26.77
2023-04-19T19:17:27.825Z,22.23
2023-04-19T19:19:55.696Z,16.93
2023-04-19T19:22:28.425Z,13.03
2023-04-19T19:24:56.360Z,14.00
2023-04-19T19:27:23.916Z,9.40
2023-04-19T19:29:51.611Z,10.10
2023-04-19T19:32:19.959Z,12.40
2023-04-19T19:37:19.994Z,12.43
2023-04-19T19:39:47.267Z,14.10
2023-04-19T19:42:19.075Z,15.53
2023-04-19T19:44:46.404Z,10.00
2023-04-19T19:47:16.146Z,13.50
2023-04-19T19:50:08.864Z,10.90
2023-04-19T19:52:32.558Z,11.70
2023-04-19T19:55:00.281Z,20.47
2023-04-19T20:00:13.048Z,12.97
2023-04-19T20:02:54.691Z,9.90
2023-04-19T20:05:24.575Z,19.70
2023-04-19T20:10:22.462Z,11.97
2023-04-19T20:12:51.129Z,9.87
2023-04-19T20:15:18.498Z,12.73
2023-04-19T20:17:46.253Z,17.03
2023-04-19T20:20:14.266Z,12.23
2023-04-19T20:22:42.959Z,12.33
2023-04-19T20:25:12.372Z,9.70
2023-04-19T20:27:39.784Z,14.37
2023-04-19T20:30:08.996Z,14.13
2023-04-19T20:32:36.694Z,15.70
2023-04-19T20:35:07.715Z,16.13
2023-04-19T20:37:36.938Z,17.10
2023-04-19T20:40:05.923Z,14.20
2023-04-19T20:42:33.631Z,16.50
2023-04-19T20:45:00.962Z,14.00
2023-04-19T20:47:28.464Z,15.57
2023-04-19T20:49:55.798Z,12.23
2023-04-19T20:52:23.143Z,15.43
2023-04-19T20:54:50.587Z,13.80
2023-04-19T20:57:18.654Z,14.97
2023-04-19T20:59:46.479Z,15.53
2023-04-19T21:02:13.861Z,14.43
2023-04-19T21:04:41.565Z,15.97
2023-04-19T21:07:09.163Z,15.50
2023-04-19T21:09:36.578Z,13.87
2023-04-19T21:12:04.242Z,26.73
2023-04-19T21:14:33.034Z,14.40
2023-04-19T21:17:01.127Z,18.93
2023-04-19T21:19:28.408Z,18.37
2023-04-19T21:21:56.108Z,13.07
2023-04-19T21:24:23.503Z,22.07
2023-04-19T21:26:50.781Z,15.43
2023-04-19T21:29:18.222Z,14.83
2023-04-19T21:31:46.720Z,19.57
2023-04-19T21:34:14.391Z,13.57
2023-04-19T21:36:41.832Z,17.43
2023-04-19T21:39:09.648Z,14.87
2023-04-19T21:41:37.706Z,23.00
2023-04-19T21:44:05.186Z,17.60
2023-04-19T21:46:34.239Z,7.60
2023-04-19T21:49:02.357Z,14.43
2023-04-19T21:51:32.135Z,24.27
2023-04-19T21:54:00.975Z,18.87
2023-04-19T21:56:28.678Z,20.70
2023-04-19T21:58:56.221Z,20.00
2023-04-19T22:01:23.746Z,20.53
2023-04-19T22:03:51.355Z,11.30
2023-04-19T22:06:24.427Z,17.23
2023-04-19T22:08:55.619Z,12.30
2023-04-19T22:11:23.335Z,22.93
2023-04-19T22:13:50.920Z,13.60
2023-04-19T22:16:18.448Z,14.63
2023-04-19T22:18:47.379Z,14.23
2023-04-19T22:21:15.105Z,17.87
2023-04-19T22:23:44.202Z,15.60
2023-04-19T22:26:11.636Z,18.00
2023-04-19T22:28:39.186Z,14.30
2023-04-19T22:31:07.869Z,12.17
2023-04-19T22:33:35.316Z,13.50
2023-04-19T22:36:03.791Z,12.97
2023-04-19T22:38:31.322Z,17.10
2023-04-19T22:40:59.531Z,14.20
2023-04-19T22:43:27.807Z,23.73
2023-04-19T22:45:55.195Z,14.60
2023-04-19T22:48:25.093Z,14.00
2023-04-19T22:50:52.948Z,12.17
2023-04-19T22:53:20.311Z,8.13
2023-04-19T22:55:47.929Z,11.30
2023-04-19T22:58:16.145Z,16.03
2023-04-19T23:00:43.769Z,10.00
2023-04-19T23:03:11.325Z,13.57
2023-04-19T23:05:39.683Z,13.17
2023-04-19T23:08:07.052Z,19.37
2023-04-19T23:10:37.329Z,13.23
2023-04-19T23:13:05.245Z,16.40
2023-04-19T23:15:33.808Z,16.30
2023-04-19T23:18:02.916Z,15.57
2023-04-19T23:20:31.429Z,12.10
2023-04-19T23:23:00.223Z,17.70
2023-04-19T23:25:27.859Z,16.17
2023-04-19T23:27:55.214Z,16.93
2023-04-19T23:30:22.833Z,14.37
2023-04-19T23:32:50.868Z,14.13
2023-04-19T23:35:18.358Z,18.27
2023-04-19T23:37:45.681Z,13.93
2023-04-19T23:40:13.502Z,11.03
2023-04-19T23:42:40.832Z,14.73
2023-04-19T23:45:09.678Z,15.53
2023-04-19T23:47:37.031Z,16.50
2023-04-19T23:50:05.751Z,17.33
2023-04-19T23:52:33.100Z,12.90
2023-04-19T23:55:00.422Z,15.30
2023-04-19T23:57:27.698Z,14.93
2023-04-19T23:59:55.010Z,13.20
